Beacon Hill North, Ontario

9:54 PM EDT on March 24, 2017 (GMT -0400)
Leitrim Site | | Change Station
Active Advisory: Special Weather Statement

Elev 289 ft 45.46 °N, 75.56 °W | Updated 3 minutes ago

Snow
Snow
31.3 °F
Feels Like 31 °F
N
0.0
Wind Variable Wind from North
Gusts 0.0 mph

Today
High -- | Low -- °F
--% Chance of Precip.
Yesterday
High -- | Low -- °F
Precip. -- in
Pressure 30.12 in
Visibility 1.2 miles
Clouds Overcast 300 ft
Windchill 31 °F
Dew Point 30 °F
Humidity 93%
Rainfall 0.13 in
Snow Depth Not available.
6:57 AM 7:20 PM
Waning Crescent, 11% visible
SPECI CYOW 250121Z 35006KT 1 1/4SM -SN OVC003 M00/M00 A3009 RMK SN3SF5 SLP197
Pressure 30.12 in
Visibility 1.2 miles
Clouds Overcast 300 ft
Windchill 31 °F
Dew Point 30 °F
Humidity 93%
Rainfall 0.13 in
Snow Depth Not available.
6:57 AM 7:20 PM
Waning Crescent, 11% visible
SPECI CYOW 250121Z 35006KT 1 1/4SM -SN OVC003 M00/M00 A3009 RMK SN3SF5 SLP197

Get Severe Weather Alerts

Thanks for signing up!

Be on the lookout for a verification email in your inbox.

You'll start receiving the daily forecast at 8 AM.

×

10-Day Weather Forecast

Almanac

Astronomy

Mar. 24, 2017 Rise Set
Actual Time
Civil Twilight
Nautical Twilight
Astronomical Twilight
Moon
Length of Visible Light
Length of Day
Tomorrow will be .
, % of the Moon is Illuminated

Today's Extremes

Country Highs Country Lows

Community

WunderPhotos

Upload Photos

1,962,540 photos uploaded!

WunderBlog® & News

Nearby

Air Quality

  Air Quality AQ Index Pollutant
Not available.

Snow Depth

Station Depth Elevation

Earthquake Activity

City Distance Mag. Time & Date
Minimum magnitude displayed is 2.5.

Earthquake Activity

City Distance Mag. Time & Date
Minimum magnitude displayed is 2.5.

Coastal Water Temperatures

Place Temperature

Stations

Nearby Weather Stations

Station Location Temp. Windchill Dew Point Humidity Wind Precip. Elev Updated Type
                   

Watches & Warnings

Special Weather Statement
Issued: Environment Canada
Special Weather Statement issued by Environment.  11:27 AM EDT Friday 24 March 2017.
Freezing rain expected Sunday.

Periods of freezing rain are expected to develop Sunday afternoon. Temperatures will slowly rise through the afternoon and evening which will change the freezing rain over rain Sunday evening. 

Areas near the Ottawa Valley will likely take longer to rise above the freezing mark. These areas could see the freezing rain persist into Sunday night.

###

Please continue to monitor alerts and forecasts issued by Environment Canada. To report severe weather, send an email to ec.cpio-tempetes-ospc-storms.ec@canada.ca or tweet reports using #ONStorm.
expires_epoch:1490412437